sensor_id;sensor_type;location;lat;lon;timestamp;P1;durP1;ratioP1;P2;durP2;ratioP2
63203;SDS011;49297;43.210;27.914;2023-02-26T00:00:25;13.27;;;10.13;;
63203;SDS011;49297;43.210;27.914;2023-02-26T00:02:51;20.05;;;11.82;;
63203;SDS011;49297;43.210;27.914;2023-02-26T00:05:17;17.48;;;11.60;;
63203;SDS011;49297;43.210;27.914;2023-02-26T00:07:42;20.98;;;11.18;;
63203;SDS011;49297;43.210;27.914;2023-02-26T00:10:09;21.00;;;12.85;;
63203;SDS011;49297;43.210;27.914;2023-02-26T00:12:37;20.17;;;11.30;;
63203;SDS011;49297;43.210;27.914;2023-02-26T00:15:04;14.88;;;10.80;;
63203;SDS011;49297;43.210;27.914;2023-02-26T00:17:43;10.88;;;9.43;;
63203;SDS011;49297;43.210;27.914;2023-02-26T00:20:20;12.98;;;9.27;;
63203;SDS011;49297;43.210;27.914;2023-02-26T00:22:46;17.95;;;11.35;;
63203;SDS011;49297;43.210;27.914;2023-02-26T00:25:12;21.55;;;12.75;;
63203;SDS011;49297;43.210;27.914;2023-02-26T00:27:38;17.05;;;12.00;;
63203;SDS011;49297;43.210;27.914;2023-02-26T00:30:04;17.67;;;11.43;;
63203;SDS011;49297;43.210;27.914;2023-02-26T00:32:33;18.00;;;11.43;;
63203;SDS011;49297;43.210;27.914;2023-02-26T00:34:59;15.63;;;10.30;;
63203;SDS011;49297;43.210;27.914;2023-02-26T00:37:28;12.98;;;11.35;;
63203;SDS011;49297;43.210;27.914;2023-02-26T00:40:20;17.60;;;10.85;;
63203;SDS011;49297;43.210;27.914;2023-02-26T00:42:47;27.70;;;12.85;;
63203;SDS011;49297;43.210;27.914;2023-02-26T00:45:13;13.07;;;11.43;;
63203;SDS011;49297;43.210;27.914;2023-02-26T00:47:43;20.30;;;12.60;;
63203;SDS011;49297;43.210;27.914;2023-02-26T00:50:51;15.52;;;10.07;;
63203;SDS011;49297;43.210;27.914;2023-02-26T00:53:26;13.88;;;9.20;;
63203;SDS011;49297;43.210;27.914;2023-02-26T00:55:57;13.43;;;10.90;;
63203;SDS011;49297;43.210;27.914;2023-02-26T00:58:23;23.73;;;11.60;;
63203;SDS011;49297;43.210;27.914;2023-02-26T01:00:49;23.85;;;12.48;;
63203;SDS011;49297;43.210;27.914;2023-02-26T01:03:14;14.90;;;11.20;;
63203;SDS011;49297;43.210;27.914;2023-02-26T01:05:40;18.88;;;11.40;;
63203;SDS011;49297;43.210;27.914;2023-02-26T01:11:11;18.83;;;10.82;;
63203;SDS011;49297;43.210;27.914;2023-02-26T01:13:37;17.65;;;12.63;;
63203;SDS011;49297;43.210;27.914;2023-02-26T01:16:04;19.98;;;12.27;;
63203;SDS011;49297;43.210;27.914;2023-02-26T01:18:38;17.60;;;11.75;;
63203;SDS011;49297;43.210;27.914;2023-02-26T01:21:06;21.10;;;10.10;;
63203;SDS011;49297;43.210;27.914;2023-02-26T01:23:40;18.77;;;12.52;;
63203;SDS011;49297;43.210;27.914;2023-02-26T01:26:12;19.25;;;10.05;;
63203;SDS011;49297;43.210;27.914;2023-02-26T01:28:45;12.07;;;10.73;;
63203;SDS011;49297;43.210;27.914;2023-02-26T01:31:46;15.25;;;10.40;;
63203;SDS011;49297;43.210;27.914;2023-02-26T01:34:15;25.88;;;11.27;;
63203;SDS011;49297;43.210;27.914;2023-02-26T01:36:57;14.25;;;10.40;;
63203;SDS011;49297;43.210;27.914;2023-02-26T01:42:26;17.63;;;10.88;;
63203;SDS011;49297;43.210;27.914;2023-02-26T01:45:00;18.83;;;10.93;;
63203;SDS011;49297;43.210;27.914;2023-02-26T01:50:23;17.73;;;10.18;;
63203;SDS011;49297;43.210;27.914;2023-02-26T01:55:38;14.07;;;11.40;;
63203;SDS011;49297;43.210;27.914;2023-02-26T01:58:08;19.45;;;11.52;;
63203;SDS011;49297;43.210;27.914;2023-02-26T02:00:35;16.77;;;10.52;;
63203;SDS011;49297;43.210;27.914;2023-02-26T02:03:01;17.58;;;9.98;;
63203;SDS011;49297;43.210;27.914;2023-02-26T02:05:28;15.15;;;10.10;;
63203;SDS011;49297;43.210;27.914;2023-02-26T02:08:02;15.52;;;9.98;;
63203;SDS011;49297;43.210;27.914;2023-02-26T02:10:28;19.27;;;9.30;;
63203;SDS011;49297;43.210;27.914;2023-02-26T02:12:59;21.02;;;10.90;;
63203;SDS011;49297;43.210;27.914;2023-02-26T02:29:47;24.92;;;10.18;;
63203;SDS011;49297;43.210;27.914;2023-02-26T02:32:24;17.58;;;10.10;;
63203;SDS011;49297;43.210;27.914;2023-02-26T02:42:45;12.57;;;9.02;;
63203;SDS011;49297;43.210;27.914;2023-02-26T02:45:27;18.17;;;10.10;;
63203;SDS011;49297;43.210;27.914;2023-02-26T02:47:56;17.33;;;10.80;;
63203;SDS011;49297;43.210;27.914;2023-02-26T02:50:33;19.98;;;9.98;;
63203;SDS011;49297;43.210;27.914;2023-02-26T02:53:13;22.70;;;11.48;;
63203;SDS011;49297;43.210;27.914;2023-02-26T02:55:52;19.15;;;10.05;;
63203;SDS011;49297;43.210;27.914;2023-02-26T02:58:30;23.25;;;10.15;;
63203;SDS011;49297;43.210;27.914;2023-02-26T03:01:02;19.02;;;10.05;;
63203;SDS011;49297;43.210;27.914;2023-02-26T03:06:22;13.52;;;10.25;;
63203;SDS011;49297;43.210;27.914;2023-02-26T03:08:48;23.15;;;16.20;;
63203;SDS011;49297;43.210;27.914;2023-02-26T03:11:16;23.30;;;11.30;;
63203;SDS011;49297;43.210;27.914;2023-02-26T03:13:43;14.10;;;9.73;;
63203;SDS011;49297;43.210;27.914;2023-02-26T03:19:26;29.70;;;11.73;;
63203;SDS011;49297;43.210;27.914;2023-02-26T03:29:52;15.57;;;8.98;;
63203;SDS011;49297;43.210;27.914;2023-02-26T03:38:00;15.70;;;10.00;;
63203;SDS011;49297;43.210;27.914;2023-02-26T03:40:30;21.17;;;9.48;;
63203;SDS011;49297;43.210;27.914;2023-02-26T03:45:43;14.80;;;10.32;;
63203;SDS011;49297;43.210;27.914;2023-02-26T03:48:14;17.98;;;10.70;;
63203;SDS011;49297;43.210;27.914;2023-02-26T03:50:56;19.95;;;10.70;;
63203;SDS011;49297;43.210;27.914;2023-02-26T03:53:29;15.63;;;10.25;;
63203;SDS011;49297;43.210;27.914;2023-02-26T03:55:59;17.27;;;10.32;;
63203;SDS011;49297;43.210;27.914;2023-02-26T03:58:46;16.30;;;10.00;;
63203;SDS011;49297;43.210;27.914;2023-02-26T04:01:16;15.75;;;9.40;;
63203;SDS011;49297;43.210;27.914;2023-02-26T04:03:48;27.58;;;11.68;;
63203;SDS011;49297;43.210;27.914;2023-02-26T04:06:23;22.13;;;11.23;;
63203;SDS011;49297;43.210;27.914;2023-02-26T04:08:49;17.85;;;10.27;;
63203;SDS011;49297;43.210;27.914;2023-02-26T04:11:17;16.42;;;10.57;;
63203;SDS011;49297;43.210;27.914;2023-02-26T04:13:44;16.35;;;8.88;;
63203;SDS011;49297;43.210;27.914;2023-02-26T04:16:10;21.95;;;10.30;;
63203;SDS011;49297;43.210;27.914;2023-02-26T04:18:37;12.63;;;9.15;;
63203;SDS011;49297;43.210;27.914;2023-02-26T04:21:02;16.20;;;8.30;;
63203;SDS011;49297;43.210;27.914;2023-02-26T04:23:28;24.67;;;10.32;;
63203;SDS011;49297;43.210;27.914;2023-02-26T04:25:55;19.20;;;10.20;;
63203;SDS011;49297;43.210;27.914;2023-02-26T04:28:21;21.38;;;9.93;;
63203;SDS011;49297;43.210;27.914;2023-02-26T04:30:47;13.23;;;9.90;;
63203;SDS011;49297;43.210;27.914;2023-02-26T04:33:13;13.77;;;9.60;;
63203;SDS011;49297;43.210;27.914;2023-02-26T04:35:39;21.42;;;11.27;;
63203;SDS011;49297;43.210;27.914;2023-02-26T04:38:05;20.25;;;10.30;;
63203;SDS011;49297;43.210;27.914;2023-02-26T04:40:31;14.70;;;9.93;;
63203;SDS011;49297;43.210;27.914;2023-02-26T04:42:57;21.83;;;10.52;;
63203;SDS011;49297;43.210;27.914;2023-02-26T04:45:23;17.67;;;9.30;;
63203;SDS011;49297;43.210;27.914;2023-02-26T04:47:48;17.80;;;10.30;;
63203;SDS011;49297;43.210;27.914;2023-02-26T04:50:14;14.95;;;9.30;;
63203;SDS011;49297;43.210;27.914;2023-02-26T04:52:40;15.60;;;11.07;;
63203;SDS011;49297;43.210;27.914;2023-02-26T04:55:06;24.92;;;14.60;;
63203;SDS011;49297;43.210;27.914;2023-02-26T04:57:32;28.27;;;11.90;;
63203;SDS011;49297;43.210;27.914;2023-02-26T04:59:58;18.88;;;11.13;;
63203;SDS011;49297;43.210;27.914;2023-02-26T05:02:24;18.48;;;10.93;;
63203;SDS011;49297;43.210;27.914;2023-02-26T05:04:50;17.00;;;9.90;;
63203;SDS011;49297;43.210;27.914;2023-02-26T05:07:15;18.65;;;10.75;;
63203;SDS011;49297;43.210;27.914;2023-02-26T05:09:41;14.10;;;8.45;;
63203;SDS011;49297;43.210;27.914;2023-02-26T05:12:07;29.25;;;9.52;;
63203;SDS011;49297;43.210;27.914;2023-02-26T05:14:33;26.88;;;8.95;;
63203;SDS011;49297;43.210;27.914;2023-02-26T05:16:58;16.40;;;9.13;;
63203;SDS011;49297;43.210;27.914;2023-02-26T05:19:24;16.45;;;9.32;;
63203;SDS011;49297;43.210;27.914;2023-02-26T05:21:50;16.30;;;9.23;;
63203;SDS011;49297;43.210;27.914;2023-02-26T05:24:16;10.73;;;7.82;;
63203;SDS011;49297;43.210;27.914;2023-02-26T05:26:42;19.00;;;9.25;;
63203;SDS011;49297;43.210;27.914;2023-02-26T05:29:07;10.60;;;7.60;;
63203;SDS011;49297;43.210;27.914;2023-02-26T05:31:33;13.85;;;9.73;;
63203;SDS011;49297;43.210;27.914;2023-02-26T05:33:59;20.08;;;8.68;;
63203;SDS011;49297;43.210;27.914;2023-02-26T05:36:25;21.25;;;10.05;;
63203;SDS011;49297;43.210;27.914;2023-02-26T05:38:51;17.92;;;8.52;;
63203;SDS011;49297;43.210;27.914;2023-02-26T05:41:18;29.92;;;10.75;;
63203;SDS011;49297;43.210;27.914;2023-02-26T05:43:44;11.52;;;7.90;;
63203;SDS011;49297;43.210;27.914;2023-02-26T05:46:10;15.48;;;8.88;;
63203;SDS011;49297;43.210;27.914;2023-02-26T05:48:36;16.80;;;10.23;;
63203;SDS011;49297;43.210;27.914;2023-02-26T05:51:02;23.05;;;10.80;;
63203;SDS011;49297;43.210;27.914;2023-02-26T05:53:27;15.45;;;9.77;;
63203;SDS011;49297;43.210;27.914;2023-02-26T05:55:53;15.90;;;9.40;;
63203;SDS011;49297;43.210;27.914;2023-02-26T05:58:19;14.75;;;9.02;;
63203;SDS011;49297;43.210;27.914;2023-02-26T06:00:45;19.48;;;9.75;;
63203;SDS011;49297;43.210;27.914;2023-02-26T06:03:11;12.13;;;8.38;;
63203;SDS011;49297;43.210;27.914;2023-02-26T06:05:37;13.90;;;9.40;;
63203;SDS011;49297;43.210;27.914;2023-02-26T06:08:03;17.70;;;9.07;;
63203;SDS011;49297;43.210;27.914;2023-02-26T06:10:29;16.45;;;9.10;;
63203;SDS011;49297;43.210;27.914;2023-02-26T06:12:55;32.42;;;9.40;;
63203;SDS011;49297;43.210;27.914;2023-02-26T06:15:21;13.82;;;9.15;;
63203;SDS011;49297;43.210;27.914;2023-02-26T06:17:48;15.43;;;8.88;;
63203;SDS011;49297;43.210;27.914;2023-02-26T06:20:14;21.80;;;10.10;;
63203;SDS011;49297;43.210;27.914;2023-02-26T06:22:40;21.73;;;9.80;;
63203;SDS011;49297;43.210;27.914;2023-02-26T06:25:06;20.33;;;11.07;;
63203;SDS011;49297;43.210;27.914;2023-02-26T06:27:32;14.90;;;8.50;;
63203;SDS011;49297;43.210;27.914;2023-02-26T06:29:57;18.95;;;9.70;;
63203;SDS011;49297;43.210;27.914;2023-02-26T06:32:23;15.88;;;9.52;;
63203;SDS011;49297;43.210;27.914;2023-02-26T06:34:49;16.05;;;8.52;;
63203;SDS011;49297;43.210;27.914;2023-02-26T06:37:15;15.52;;;10.68;;
63203;SDS011;49297;43.210;27.914;2023-02-26T06:39:40;21.38;;;10.50;;
63203;SDS011;49297;43.210;27.914;2023-02-26T06:42:06;21.90;;;9.77;;
63203;SDS011;49297;43.210;27.914;2023-02-26T06:44:32;17.60;;;10.25;;
63203;SDS011;49297;43.210;27.914;2023-02-26T06:46:58;20.33;;;10.65;;
63203;SDS011;49297;43.210;27.914;2023-02-26T06:49:24;16.35;;;10.00;;
63203;SDS011;49297;43.210;27.914;2023-02-26T06:51:50;19.95;;;11.70;;
63203;SDS011;49297;43.210;27.914;2023-02-26T06:54:16;18.83;;;10.55;;
63203;SDS011;49297;43.210;27.914;2023-02-26T06:56:42;27.25;;;11.65;;
63203;SDS011;49297;43.210;27.914;2023-02-26T06:59:08;17.45;;;10.20;;
63203;SDS011;49297;43.210;27.914;2023-02-26T07:01:34;15.52;;;10.32;;
63203;SDS011;49297;43.210;27.914;2023-02-26T07:03:59;17.92;;;9.32;;
63203;SDS011;49297;43.210;27.914;2023-02-26T07:06:25;11.98;;;8.93;;
63203;SDS011;49297;43.210;27.914;2023-02-26T07:08:51;15.70;;;7.80;;
63203;SDS011;49297;43.210;27.914;2023-02-26T07:11:17;18.60;;;8.27;;
63203;SDS011;49297;43.210;27.914;2023-02-26T07:13:42;14.35;;;9.13;;
63203;SDS011;49297;43.210;27.914;2023-02-26T07:16:08;13.23;;;7.82;;
63203;SDS011;49297;43.210;27.914;2023-02-26T07:18:35;19.52;;;8.93;;
63203;SDS011;49297;43.210;27.914;2023-02-26T07:21:02;14.93;;;7.90;;
63203;SDS011;49297;43.210;27.914;2023-02-26T07:23:29;11.23;;;8.20;;
63203;SDS011;49297;43.210;27.914;2023-02-26T07:25:55;12.70;;;8.35;;
63203;SDS011;49297;43.210;27.914;2023-02-26T07:28:22;14.20;;;8.80;;
63203;SDS011;49297;43.210;27.914;2023-02-26T07:30:48;18.85;;;8.55;;
63203;SDS011;49297;43.210;27.914;2023-02-26T07:33:14;13.52;;;8.23;;
63203;SDS011;49297;43.210;27.914;2023-02-26T07:35:39;15.05;;;8.25;;
63203;SDS011;49297;43.210;27.914;2023-02-26T07:38:05;15.60;;;7.95;;
63203;SDS011;49297;43.210;27.914;2023-02-26T07:40:31;14.88;;;7.75;;
63203;SDS011;49297;43.210;27.914;2023-02-26T07:42:58;19.73;;;9.27;;
63203;SDS011;49297;43.210;27.914;2023-02-26T07:45:24;11.90;;;8.98;;
63203;SDS011;49297;43.210;27.914;2023-02-26T07:47:50;12.32;;;8.50;;
63203;SDS011;49297;43.210;27.914;2023-02-26T07:50:17;14.23;;;8.88;;
63203;SDS011;49297;43.210;27.914;2023-02-26T07:52:44;19.65;;;9.52;;
63203;SDS011;49297;43.210;27.914;2023-02-26T07:55:10;22.85;;;9.07;;
63203;SDS011;49297;43.210;27.914;2023-02-26T07:57:36;25.90;;;8.85;;
63203;SDS011;49297;43.210;27.914;2023-02-26T08:00:02;13.82;;;8.32;;
63203;SDS011;49297;43.210;27.914;2023-02-26T08:02:29;17.70;;;8.70;;
63203;SDS011;49297;43.210;27.914;2023-02-26T08:04:55;21.00;;;8.75;;
63203;SDS011;49297;43.210;27.914;2023-02-26T08:07:21;12.63;;;8.13;;
63203;SDS011;49297;43.210;27.914;2023-02-26T08:09:47;15.68;;;7.90;;
63203;SDS011;49297;43.210;27.914;2023-02-26T08:12:13;17.83;;;8.35;;
63203;SDS011;49297;43.210;27.914;2023-02-26T08:14:39;22.65;;;9.07;;
63203;SDS011;49297;43.210;27.914;2023-02-26T08:17:07;18.92;;;8.65;;
63203;SDS011;49297;43.210;27.914;2023-02-26T08:19:35;15.50;;;8.15;;
63203;SDS011;49297;43.210;27.914;2023-02-26T08:22:02;16.63;;;7.70;;
63203;SDS011;49297;43.210;27.914;2023-02-26T08:24:28;14.02;;;8.38;;
63203;SDS011;49297;43.210;27.914;2023-02-26T08:26:53;13.75;;;8.05;;
63203;SDS011;49297;43.210;27.914;2023-02-26T08:29:20;13.57;;;7.93;;
63203;SDS011;49297;43.210;27.914;2023-02-26T08:31:47;21.10;;;7.63;;
63203;SDS011;49297;43.210;27.914;2023-02-26T08:34:13;21.15;;;9.07;;
63203;SDS011;49297;43.210;27.914;2023-02-26T08:36:38;11.70;;;7.43;;
63203;SDS011;49297;43.210;27.914;2023-02-26T08:39:04;16.55;;;6.97;;
63203;SDS011;49297;43.210;27.914;2023-02-26T08:41:33;13.25;;;7.45;;
63203;SDS011;49297;43.210;27.914;2023-02-26T08:44:00;18.35;;;7.28;;
63203;SDS011;49297;43.210;27.914;2023-02-26T08:46:27;14.27;;;7.85;;
63203;SDS011;49297;43.210;27.914;2023-02-26T08:48:53;26.10;;;9.05;;
63203;SDS011;49297;43.210;27.914;2023-02-26T08:51:19;16.63;;;7.38;;
63203;SDS011;49297;43.210;27.914;2023-02-26T08:53:46;12.30;;;8.77;;
63203;SDS011;49297;43.210;27.914;2023-02-26T08:56:14;15.20;;;7.85;;
63203;SDS011;49297;43.210;27.914;2023-02-26T08:58:41;18.30;;;8.00;;
63203;SDS011;49297;43.210;27.914;2023-02-26T09:01:08;13.60;;;7.90;;
63203;SDS011;49297;43.210;27.914;2023-02-26T09:03:34;15.20;;;7.82;;
63203;SDS011;49297;43.210;27.914;2023-02-26T09:06:00;13.00;;;6.88;;
63203;SDS011;49297;43.210;27.914;2023-02-26T09:08:26;16.08;;;7.65;;
63203;SDS011;49297;43.210;27.914;2023-02-26T09:10:51;15.80;;;7.95;;
63203;SDS011;49297;43.210;27.914;2023-02-26T09:13:17;16.73;;;7.72;;
63203;SDS011;49297;43.210;27.914;2023-02-26T09:15:43;14.02;;;6.75;;
63203;SDS011;49297;43.210;27.914;2023-02-26T09:18:09;20.83;;;7.10;;
63203;SDS011;49297;43.210;27.914;2023-02-26T09:20:43;18.08;;;7.78;;
63203;SDS011;49297;43.210;27.914;2023-02-26T09:23:10;12.75;;;6.80;;
63203;SDS011;49297;43.210;27.914;2023-02-26T09:25:37;14.82;;;7.05;;
63203;SDS011;49297;43.210;27.914;2023-02-26T09:28:03;21.13;;;7.43;;
63203;SDS011;49297;43.210;27.914;2023-02-26T09:30:29;12.70;;;6.85;;
63203;SDS011;49297;43.210;27.914;2023-02-26T09:32:56;17.13;;;7.72;;
63203;SDS011;49297;43.210;27.914;2023-02-26T09:35:22;17.42;;;7.60;;
63203;SDS011;49297;43.210;27.914;2023-02-26T09:37:48;20.35;;;7.82;;
63203;SDS011;49297;43.210;27.914;2023-02-26T09:49:02;15.50;;;7.15;;
63203;SDS011;49297;43.210;27.914;2023-02-26T09:51:36;13.85;;;6.60;;
63203;SDS011;49297;43.210;27.914;2023-02-26T09:54:13;12.20;;;7.35;;
63203;SDS011;49297;43.210;27.914;2023-02-26T09:56:44;23.13;;;6.07;;
63203;SDS011;49297;43.210;27.914;2023-02-26T09:59:11;18.92;;;6.28;;
63203;SDS011;49297;43.210;27.914;2023-02-26T10:01:39;17.63;;;6.78;;
63203;SDS011;49297;43.210;27.914;2023-02-26T10:11:59;17.45;;;6.50;;
63203;SDS011;49297;43.210;27.914;2023-02-26T10:17:15;11.93;;;5.68;;
63203;SDS011;49297;43.210;27.914;2023-02-26T10:20:02;10.68;;;5.60;;
63203;SDS011;49297;43.210;27.914;2023-02-26T10:25:14;12.57;;;6.13;;
63203;SDS011;49297;43.210;27.914;2023-02-26T10:30:32;13.73;;;7.53;;
63203;SDS011;49297;43.210;27.914;2023-02-26T10:35:55;10.23;;;5.90;;
63203;SDS011;49297;43.210;27.914;2023-02-26T10:38:35;13.57;;;6.75;;
63203;SDS011;49297;43.210;27.914;2023-02-26T10:41:03;15.05;;;5.82;;
63203;SDS011;49297;43.210;27.914;2023-02-26T10:51:51;10.70;;;6.38;;
63203;SDS011;49297;43.210;27.914;2023-02-26T10:57:08;14.43;;;6.85;;
63203;SDS011;49297;43.210;27.914;2023-02-26T10:59:43;14.93;;;7.07;;
63203;SDS011;49297;43.210;27.914;2023-02-26T11:02:30;18.20;;;7.05;;
63203;SDS011;49297;43.210;27.914;2023-02-26T11:05:01;13.40;;;6.13;;
63203;SDS011;49297;43.210;27.914;2023-02-26T11:07:28;15.63;;;5.50;;
63203;SDS011;49297;43.210;27.914;2023-02-26T11:09:56;21.20;;;7.28;;
63203;SDS011;49297;43.210;27.914;2023-02-26T11:12:23;14.13;;;6.18;;
63203;SDS011;49297;43.210;27.914;2023-02-26T11:14:50;14.07;;;7.32;;
63203;SDS011;49297;43.210;27.914;2023-02-26T11:17:26;21.33;;;6.68;;
63203;SDS011;49297;43.210;27.914;2023-02-26T11:19:58;11.02;;;6.32;;
63203;SDS011;49297;43.210;27.914;2023-02-26T11:22:28;13.32;;;7.63;;
63203;SDS011;49297;43.210;27.914;2023-02-26T11:24:56;10.52;;;5.95;;
63203;SDS011;49297;43.210;27.914;2023-02-26T11:27:29;12.75;;;6.90;;
63203;SDS011;49297;43.210;27.914;2023-02-26T11:30:14;12.98;;;7.50;;
63203;SDS011;49297;43.210;27.914;2023-02-26T11:32:43;16.88;;;8.15;;
63203;SDS011;49297;43.210;27.914;2023-02-26T11:35:13;13.90;;;7.35;;
63203;SDS011;49297;43.210;27.914;2023-02-26T11:37:41;14.00;;;7.82;;
63203;SDS011;49297;43.210;27.914;2023-02-26T11:40:16;14.57;;;6.53;;
63203;SDS011;49297;43.210;27.914;2023-02-26T11:42:51;13.13;;;6.60;;
63203;SDS011;49297;43.210;27.914;2023-02-26T11:45:19;33.22;;;26.23;;
63203;SDS011;49297;43.210;27.914;2023-02-26T11:47:53;22.10;;;8.60;;
63203;SDS011;49297;43.210;27.914;2023-02-26T11:50:31;13.30;;;6.32;;
63203;SDS011;49297;43.210;27.914;2023-02-26T11:53:05;17.88;;;6.55;;
63203;SDS011;49297;43.210;27.914;2023-02-26T11:55:34;15.23;;;7.80;;
63203;SDS011;49297;43.210;27.914;2023-02-26T11:58:04;9.25;;;6.38;;
63203;SDS011;49297;43.210;27.914;2023-02-26T12:00:42;10.77;;;6.53;;
63203;SDS011;49297;43.210;27.914;2023-02-26T12:03:14;15.35;;;7.43;;
63203;SDS011;49297;43.210;27.914;2023-02-26T12:05:48;14.80;;;7.90;;
63203;SDS011;49297;43.210;27.914;2023-02-26T12:08:25;21.42;;;6.63;;
63203;SDS011;49297;43.210;27.914;2023-02-26T12:19:27;8.07;;;6.30;;
63203;SDS011;49297;43.210;27.914;2023-02-26T12:22:08;14.80;;;6.90;;
63203;SDS011;49297;43.210;27.914;2023-02-26T12:40:21;12.05;;;7.15;;
63203;SDS011;49297;43.210;27.914;2023-02-26T12:43:23;16.65;;;7.05;;
63203;SDS011;49297;43.210;27.914;2023-02-26T12:48:48;11.95;;;7.20;;
63203;SDS011;49297;43.210;27.914;2023-02-26T12:51:42;17.80;;;8.27;;
63203;SDS011;49297;43.210;27.914;2023-02-26T13:17:03;15.55;;;7.03;;
63203;SDS011;49297;43.210;27.914;2023-02-26T13:22:11;8.45;;;6.20;;
63203;SDS011;49297;43.210;27.914;2023-02-26T13:25:03;10.90;;;6.43;;
63203;SDS011;49297;43.210;27.914;2023-02-26T13:27:50;13.07;;;7.88;;
63203;SDS011;49297;43.210;27.914;2023-02-26T13:33:14;17.63;;;7.00;;
63203;SDS011;49297;43.210;27.914;2023-02-26T13:44:06;11.07;;;6.45;;
63203;SDS011;49297;43.210;27.914;2023-02-26T13:52:34;14.00;;;6.80;;
63203;SDS011;49297;43.210;27.914;2023-02-26T13:55:01;15.20;;;6.93;;
63203;SDS011;49297;43.210;27.914;2023-02-26T13:57:34;24.65;;;7.03;;
63203;SDS011;49297;43.210;27.914;2023-02-26T14:02:53;13.20;;;6.78;;
63203;SDS011;49297;43.210;27.914;2023-02-26T14:05:35;10.95;;;6.25;;
63203;SDS011;49297;43.210;27.914;2023-02-26T14:08:26;11.40;;;6.65;;
63203;SDS011;49297;43.210;27.914;2023-02-26T14:13:42;13.15;;;6.00;;
63203;SDS011;49297;43.210;27.914;2023-02-26T14:16:33;16.92;;;7.03;;
63203;SDS011;49297;43.210;27.914;2023-02-26T14:29:38;18.75;;;7.50;;
63203;SDS011;49297;43.210;27.914;2023-02-26T14:37:21;15.93;;;8.07;;
63203;SDS011;49297;43.210;27.914;2023-02-26T14:39:53;14.80;;;7.80;;
63203;SDS011;49297;43.210;27.914;2023-02-26T14:47:42;8.27;;;7.47;;
63203;SDS011;49297;43.210;27.914;2023-02-26T14:50:10;11.32;;;7.85;;
63203;SDS011;49297;43.210;27.914;2023-02-26T15:03:52;12.15;;;8.82;;
63203;SDS011;49297;43.210;27.914;2023-02-26T15:14:45;16.50;;;9.75;;
63203;SDS011;49297;43.210;27.914;2023-02-26T15:17:28;12.10;;;8.93;;
63203;SDS011;49297;43.210;27.914;2023-02-26T15:22:31;13.57;;;8.27;;
63203;SDS011;49297;43.210;27.914;2023-02-26T15:25:04;16.75;;;9.85;;
63203;SDS011;49297;43.210;27.914;2023-02-26T15:27:39;13.35;;;9.43;;
63203;SDS011;49297;43.210;27.914;2023-02-26T15:30:06;23.00;;;8.70;;
63203;SDS011;49297;43.210;27.914;2023-02-26T15:32:37;22.83;;;8.45;;
63203;SDS011;49297;43.210;27.914;2023-02-26T15:37:46;16.33;;;8.60;;
63203;SDS011;49297;43.210;27.914;2023-02-26T15:40:14;18.40;;;8.07;;
63203;SDS011;49297;43.210;27.914;2023-02-26T15:42:40;11.68;;;7.43;;
63203;SDS011;49297;43.210;27.914;2023-02-26T15:45:20;12.88;;;7.88;;
63203;SDS011;49297;43.210;27.914;2023-02-26T15:47:51;10.88;;;7.40;;
63203;SDS011;49297;43.210;27.914;2023-02-26T15:50:21;14.52;;;8.45;;
63203;SDS011;49297;43.210;27.914;2023-02-26T15:52:52;11.00;;;7.88;;
63203;SDS011;49297;43.210;27.914;2023-02-26T15:55:21;10.50;;;7.47;;
63203;SDS011;49297;43.210;27.914;2023-02-26T15:57:47;12.20;;;8.70;;
63203;SDS011;49297;43.210;27.914;2023-02-26T16:00:17;13.05;;;8.57;;
63203;SDS011;49297;43.210;27.914;2023-02-26T16:02:50;10.48;;;8.00;;
63203;SDS011;49297;43.210;27.914;2023-02-26T16:05:21;9.57;;;7.05;;
63203;SDS011;49297;43.210;27.914;2023-02-26T16:07:48;8.68;;;7.10;;
63203;SDS011;49297;43.210;27.914;2023-02-26T16:10:26;12.88;;;7.70;;
63203;SDS011;49297;43.210;27.914;2023-02-26T16:13:02;10.85;;;6.78;;
63203;SDS011;49297;43.210;27.914;2023-02-26T16:15:33;10.45;;;6.68;;
63203;SDS011;49297;43.210;27.914;2023-02-26T16:18:03;11.75;;;8.05;;
63203;SDS011;49297;43.210;27.914;2023-02-26T16:20:34;16.23;;;7.68;;
63203;SDS011;49297;43.210;27.914;2023-02-26T16:23:06;15.75;;;6.57;;
63203;SDS011;49297;43.210;27.914;2023-02-26T16:26:02;11.00;;;7.70;;
63203;SDS011;49297;43.210;27.914;2023-02-26T16:28:32;11.88;;;5.97;;
63203;SDS011;49297;43.210;27.914;2023-02-26T16:31:02;12.55;;;6.97;;
63203;SDS011;49297;43.210;27.914;2023-02-26T16:33:32;9.23;;;7.25;;
63203;SDS011;49297;43.210;27.914;2023-02-26T16:38:42;9.75;;;6.90;;
63203;SDS011;49297;43.210;27.914;2023-02-26T16:41:24;9.00;;;5.95;;
63203;SDS011;49297;43.210;27.914;2023-02-26T16:43:53;13.75;;;7.05;;
63203;SDS011;49297;43.210;27.914;2023-02-26T16:46:29;11.07;;;6.40;;
63203;SDS011;49297;43.210;27.914;2023-02-26T16:51:42;9.30;;;6.93;;
63203;SDS011;49297;43.210;27.914;2023-02-26T16:57:43;8.05;;;6.65;;
63203;SDS011;49297;43.210;27.914;2023-02-26T17:00:16;12.43;;;5.72;;
63203;SDS011;49297;43.210;27.914;2023-02-26T17:02:45;11.15;;;6.80;;
63203;SDS011;49297;43.210;27.914;2023-02-26T17:05:19;13.57;;;7.13;;
63203;SDS011;49297;43.210;27.914;2023-02-26T17:07:54;20.63;;;7.15;;
63203;SDS011;49297;43.210;27.914;2023-02-26T17:10:32;16.08;;;6.95;;
63203;SDS011;49297;43.210;27.914;2023-02-26T17:13:15;20.15;;;7.35;;
63203;SDS011;49297;43.210;27.914;2023-02-26T17:15:43;35.20;;;8.90;;
63203;SDS011;49297;43.210;27.914;2023-02-26T17:18:11;7.90;;;5.65;;
63203;SDS011;49297;43.210;27.914;2023-02-26T17:20:37;15.38;;;6.97;;
63203;SDS011;49297;43.210;27.914;2023-02-26T17:23:04;11.93;;;6.45;;
63203;SDS011;49297;43.210;27.914;2023-02-26T17:25:37;9.05;;;6.45;;
63203;SDS011;49297;43.210;27.914;2023-02-26T17:28:05;8.45;;;6.13;;
63203;SDS011;49297;43.210;27.914;2023-02-26T17:30:32;9.73;;;6.65;;
63203;SDS011;49297;43.210;27.914;2023-02-26T17:32:59;8.77;;;5.65;;
63203;SDS011;49297;43.210;27.914;2023-02-26T17:35:27;10.02;;;6.07;;
63203;SDS011;49297;43.210;27.914;2023-02-26T17:37:53;17.20;;;7.13;;
63203;SDS011;49297;43.210;27.914;2023-02-26T17:43:03;10.63;;;5.72;;
63203;SDS011;49297;43.210;27.914;2023-02-26T17:45:30;9.45;;;5.88;;
63203;SDS011;49297;43.210;27.914;2023-02-26T17:47:58;11.52;;;7.00;;
63203;SDS011;49297;43.210;27.914;2023-02-26T17:55:23;12.98;;;5.63;;
63203;SDS011;49297;43.210;27.914;2023-02-26T17:57:49;11.50;;;5.35;;
63203;SDS011;49297;43.210;27.914;2023-02-26T18:00:16;11.02;;;6.50;;
63203;SDS011;49297;43.210;27.914;2023-02-26T18:02:43;10.65;;;6.63;;
63203;SDS011;49297;43.210;27.914;2023-02-26T18:05:10;11.98;;;6.85;;
63203;SDS011;49297;43.210;27.914;2023-02-26T18:07:36;11.02;;;6.25;;
63203;SDS011;49297;43.210;27.914;2023-02-26T18:10:03;13.98;;;7.40;;
63203;SDS011;49297;43.210;27.914;2023-02-26T18:12:29;10.48;;;6.30;;
63203;SDS011;49297;43.210;27.914;2023-02-26T18:14:55;11.18;;;7.20;;
63203;SDS011;49297;43.210;27.914;2023-02-26T18:17:22;11.23;;;6.82;;
63203;SDS011;49297;43.210;27.914;2023-02-26T18:19:50;6.78;;;6.18;;
63203;SDS011;49297;43.210;27.914;2023-02-26T18:22:18;10.80;;;5.60;;
63203;SDS011;49297;43.210;27.914;2023-02-26T18:24:45;14.13;;;5.82;;